sensor_id;sensor_type;location;lat;lon;timestamp;temperature;humidity
19945;DHT22;10134;50.952;6.930;2022-09-09T00:00:25;20.50;99.90
19945;DHT22;10134;50.952;6.930;2022-09-09T00:05:42;20.40;99.90
19945;DHT22;10134;50.952;6.930;2022-09-09T00:08:24;20.40;99.90
19945;DHT22;10134;50.952;6.930;2022-09-09T00:10:58;20.30;99.90
19945;DHT22;10134;50.952;6.930;2022-09-09T00:13:37;20.30;99.90
19945;DHT22;10134;50.952;6.930;2022-09-09T00:16:16;20.30;99.90
19945;DHT22;10134;50.952;6.930;2022-09-09T00:21:35;20.30;99.90
19945;DHT22;10134;50.952;6.930;2022-09-09T00:24:16;20.30;99.90
19945;DHT22;10134;50.952;6.930;2022-09-09T00:26:49;20.30;99.90
19945;DHT22;10134;50.952;6.930;2022-09-09T00:31:57;20.30;99.90
19945;DHT22;10134;50.952;6.930;2022-09-09T00:34:28;20.30;99.90
19945;DHT22;10134;50.952;6.930;2022-09-09T00:36:56;20.20;99.90
19945;DHT22;10134;50.952;6.930;2022-09-09T00:39:34;20.20;99.90
19945;DHT22;10134;50.952;6.930;2022-09-09T00:42:31;20.20;99.90
19945;DHT22;10134;50.952;6.930;2022-09-09T00:48:03;20.20;99.90
19945;DHT22;10134;50.952;6.930;2022-09-09T00:56:26;20.20;99.90
19945;DHT22;10134;50.952;6.930;2022-09-09T00:59:14;20.20;99.90
19945;DHT22;10134;50.952;6.930;2022-09-09T01:01:42;20.20;99.90
19945;DHT22;10134;50.952;6.930;2022-09-09T01:04:14;20.20;99.90
19945;DHT22;10134;50.952;6.930;2022-09-09T01:06:45;20.10;99.90
19945;DHT22;10134;50.952;6.930;2022-09-09T01:09:26;20.10;99.90
19945;DHT22;10134;50.952;6.930;2022-09-09T01:14:48;20.00;99.90
19945;DHT22;10134;50.952;6.930;2022-09-09T01:26:48;19.90;99.90
19945;DHT22;10134;50.952;6.930;2022-09-09T01:28:59;19.80;99.90
19945;DHT22;10134;50.952;6.930;2022-09-09T01:31:40;19.80;99.90
19945;DHT22;10134;50.952;6.930;2022-09-09T01:34:13;19.80;99.90
19945;DHT22;10134;50.952;6.930;2022-09-09T01:37:03;19.70;99.90
19945;DHT22;10134;50.952;6.930;2022-09-09T01:39:34;19.70;99.90
19945;DHT22;10134;50.952;6.930;2022-09-09T01:42:08;19.70;99.90
19945;DHT22;10134;50.952;6.930;2022-09-09T01:44:36;19.60;99.90
19945;DHT22;10134;50.952;6.930;2022-09-09T01:47:06;19.60;99.90
19945;DHT22;10134;50.952;6.930;2022-09-09T01:49:37;19.70;99.90
19945;DHT22;10134;50.952;6.930;2022-09-09T01:52:13;19.60;99.90
19945;DHT22;10134;50.952;6.930;2022-09-09T01:54:40;19.70;99.90
19945;DHT22;10134;50.952;6.930;2022-09-09T02:03:17;19.70;99.90
19945;DHT22;10134;50.952;6.930;2022-09-09T02:06:35;19.60;99.90
19945;DHT22;10134;50.952;6.930;2022-09-09T02:09:16;19.60;99.90
19945;DHT22;10134;50.952;6.930;2022-09-09T02:11:47;19.60;99.90
19945;DHT22;10134;50.952;6.930;2022-09-09T02:14:31;19.60;99.90
19945;DHT22;10134;50.952;6.930;2022-09-09T02:17:09;19.60;99.90
19945;DHT22;10134;50.952;6.930;2022-09-09T02:20:06;19.60;99.90
19945;DHT22;10134;50.952;6.930;2022-09-09T02:22:43;19.60;99.90
19945;DHT22;10134;50.952;6.930;2022-09-09T02:25:17;19.60;99.90
19945;DHT22;10134;50.952;6.930;2022-09-09T02:27:48;19.60;99.90
19945;DHT22;10134;50.952;6.930;2022-09-09T02:30:17;19.60;99.90
19945;DHT22;10134;50.952;6.930;2022-09-09T02:32:52;19.60;99.90
19945;DHT22;10134;50.952;6.930;2022-09-09T02:35:34;19.60;99.90
19945;DHT22;10134;50.952;6.930;2022-09-09T02:38:08;19.60;99.90
19945;DHT22;10134;50.952;6.930;2022-09-09T02:40:39;19.60;99.90
19945;DHT22;10134;50.952;6.930;2022-09-09T02:43:09;19.60;99.90
19945;DHT22;10134;50.952;6.930;2022-09-09T02:46:08;19.60;99.90
19945;DHT22;10134;50.952;6.930;2022-09-09T02:48:47;19.50;99.90
19945;DHT22;10134;50.952;6.930;2022-09-09T02:51:49;19.50;99.90
19945;DHT22;10134;50.952;6.930;2022-09-09T02:54:29;19.50;99.90
19945;DHT22;10134;50.952;6.930;2022-09-09T02:57:14;19.50;99.90
19945;DHT22;10134;50.952;6.930;2022-09-09T02:59:44;19.50;99.90
19945;DHT22;10134;50.952;6.930;2022-09-09T03:02:12;19.50;99.90
19945;DHT22;10134;50.952;6.930;2022-09-09T03:04:41;19.50;99.90
19945;DHT22;10134;50.952;6.930;2022-09-09T03:07:13;19.50;99.90
19945;DHT22;10134;50.952;6.930;2022-09-09T03:09:41;19.50;99.90
19945;DHT22;10134;50.952;6.930;2022-09-09T03:12:09;19.50;99.90
19945;DHT22;10134;50.952;6.930;2022-09-09T03:14:38;19.50;99.90
19945;DHT22;10134;50.952;6.930;2022-09-09T03:17:06;19.50;99.90
19945;DHT22;10134;50.952;6.930;2022-09-09T03:19:38;19.50;99.90
19945;DHT22;10134;50.952;6.930;2022-09-09T03:22:10;19.50;99.90
19945;DHT22;10134;50.952;6.930;2022-09-09T03:24:41;19.50;99.90
19945;DHT22;10134;50.952;6.930;2022-09-09T03:27:08;19.50;99.90
19945;DHT22;10134;50.952;6.930;2022-09-09T03:29:38;19.50;99.90
19945;DHT22;10134;50.952;6.930;2022-09-09T03:32:08;19.50;99.90
19945;DHT22;10134;50.952;6.930;2022-09-09T03:34:38;19.50;99.90
19945;DHT22;10134;50.952;6.930;2022-09-09T03:37:11;19.50;99.90
19945;DHT22;10134;50.952;6.930;2022-09-09T03:39:39;19.50;99.90
19945;DHT22;10134;50.952;6.930;2022-09-09T03:42:08;19.50;99.90
19945;DHT22;10134;50.952;6.930;2022-09-09T03:44:35;19.50;99.90
19945;DHT22;10134;50.952;6.930;2022-09-09T03:47:02;19.50;99.90
19945;DHT22;10134;50.952;6.930;2022-09-09T03:49:30;19.40;99.90
19945;DHT22;10134;50.952;6.930;2022-09-09T03:51:57;19.50;99.90
19945;DHT22;10134;50.952;6.930;2022-09-09T03:54:26;19.50;99.90
19945;DHT22;10134;50.952;6.930;2022-09-09T03:56:55;19.40;99.90
19945;DHT22;10134;50.952;6.930;2022-09-09T03:59:23;19.50;99.90
19945;DHT22;10134;50.952;6.930;2022-09-09T04:01:50;19.40;99.90
19945;DHT22;10134;50.952;6.930;2022-09-09T04:04:18;19.40;99.90
19945;DHT22;10134;50.952;6.930;2022-09-09T04:06:47;19.40;99.90
19945;DHT22;10134;50.952;6.930;2022-09-09T04:09:15;19.40;99.90
19945;DHT22;10134;50.952;6.930;2022-09-09T04:11:42;19.40;99.90
19945;DHT22;10134;50.952;6.930;2022-09-09T04:14:09;19.40;99.90
19945;DHT22;10134;50.952;6.930;2022-09-09T04:16:37;19.40;99.90
19945;DHT22;10134;50.952;6.930;2022-09-09T04:19:05;19.40;99.90
19945;DHT22;10134;50.952;6.930;2022-09-09T04:21:35;19.40;99.90
19945;DHT22;10134;50.952;6.930;2022-09-09T04:24:03;19.40;99.90
19945;DHT22;10134;50.952;6.930;2022-09-09T04:26:30;19.40;99.90
19945;DHT22;10134;50.952;6.930;2022-09-09T04:28:59;19.40;99.90
19945;DHT22;10134;50.952;6.930;2022-09-09T04:31:27;19.40;99.90
19945;DHT22;10134;50.952;6.930;2022-09-09T04:33:56;19.40;99.90
19945;DHT22;10134;50.952;6.930;2022-09-09T04:36:24;19.40;99.90
19945;DHT22;10134;50.952;6.930;2022-09-09T04:38:57;19.50;99.90
19945;DHT22;10134;50.952;6.930;2022-09-09T04:41:25;19.40;99.90
19945;DHT22;10134;50.952;6.930;2022-09-09T04:43:53;19.50;99.90
19945;DHT22;10134;50.952;6.930;2022-09-09T04:46:22;19.40;99.90
19945;DHT22;10134;50.952;6.930;2022-09-09T04:48:50;19.40;99.90
19945;DHT22;10134;50.952;6.930;2022-09-09T04:51:19;19.40;99.90
19945;DHT22;10134;50.952;6.930;2022-09-09T04:53:48;19.40;99.90
19945;DHT22;10134;50.952;6.930;2022-09-09T04:56:18;19.50;99.90
19945;DHT22;10134;50.952;6.930;2022-09-09T04:58:55;19.40;99.90
19945;DHT22;10134;50.952;6.930;2022-09-09T05:01:28;19.40;99.90
19945;DHT22;10134;50.952;6.930;2022-09-09T05:04:02;19.40;99.90
19945;DHT22;10134;50.952;6.930;2022-09-09T05:06:32;19.40;99.90
19945;DHT22;10134;50.952;6.930;2022-09-09T05:09:00;19.40;99.90
19945;DHT22;10134;50.952;6.930;2022-09-09T05:11:31;19.40;99.90
19945;DHT22;10134;50.952;6.930;2022-09-09T05:14:19;19.50;99.90
19945;DHT22;10134;50.952;6.930;2022-09-09T05:16:46;19.50;99.90
19945;DHT22;10134;50.952;6.930;2022-09-09T05:19:14;19.50;99.90
19945;DHT22;10134;50.952;6.930;2022-09-09T05:21:47;19.50;99.90
19945;DHT22;10134;50.952;6.930;2022-09-09T05:24:18;19.50;99.90
19945;DHT22;10134;50.952;6.930;2022-09-09T05:26:47;19.50;99.90
19945;DHT22;10134;50.952;6.930;2022-09-09T05:29:15;19.50;99.90
19945;DHT22;10134;50.952;6.930;2022-09-09T05:31:46;19.40;99.90
19945;DHT22;10134;50.952;6.930;2022-09-09T05:34:17;19.50;99.90
19945;DHT22;10134;50.952;6.930;2022-09-09T05:36:44;19.50;99.90
19945;DHT22;10134;50.952;6.930;2022-09-09T05:39:12;19.40;99.90
19945;DHT22;10134;50.952;6.930;2022-09-09T05:41:40;19.40;99.90
19945;DHT22;10134;50.952;6.930;2022-09-09T05:44:08;19.40;99.90
19945;DHT22;10134;50.952;6.930;2022-09-09T05:46:38;19.40;99.90
19945;DHT22;10134;50.952;6.930;2022-09-09T05:49:06;19.40;99.90
19945;DHT22;10134;50.952;6.930;2022-09-09T05:51:34;19.40;99.90
19945;DHT22;10134;50.952;6.930;2022-09-09T05:54:06;19.40;99.90
19945;DHT22;10134;50.952;6.930;2022-09-09T05:56:38;19.40;99.90
19945;DHT22;10134;50.952;6.930;2022-09-09T05:59:07;19.40;99.90
19945;DHT22;10134;50.952;6.930;2022-09-09T06:01:36;19.30;99.90
19945;DHT22;10134;50.952;6.930;2022-09-09T06:04:06;19.40;99.90
19945;DHT22;10134;50.952;6.930;2022-09-09T06:06:35;19.40;99.90
19945;DHT22;10134;50.952;6.930;2022-09-09T06:09:13;19.40;99.90
19945;DHT22;10134;50.952;6.930;2022-09-09T06:11:43;19.40;99.90
19945;DHT22;10134;50.952;6.930;2022-09-09T06:14:13;19.40;99.90
19945;DHT22;10134;50.952;6.930;2022-09-09T06:16:44;19.50;99.90
19945;DHT22;10134;50.952;6.930;2022-09-09T06:19:17;19.50;99.90
19945;DHT22;10134;50.952;6.930;2022-09-09T06:21:48;19.50;99.90
19945;DHT22;10134;50.952;6.930;2022-09-09T06:24:16;19.50;99.90
19945;DHT22;10134;50.952;6.930;2022-09-09T06:26:46;19.40;99.90
19945;DHT22;10134;50.952;6.930;2022-09-09T06:29:21;19.40;99.90
19945;DHT22;10134;50.952;6.930;2022-09-09T06:31:48;19.40;99.90
19945;DHT22;10134;50.952;6.930;2022-09-09T06:34:20;19.40;99.90
19945;DHT22;10134;50.952;6.930;2022-09-09T06:36:52;19.40;99.90
19945;DHT22;10134;50.952;6.930;2022-09-09T06:39:19;19.40;99.90
19945;DHT22;10134;50.952;6.930;2022-09-09T06:41:46;19.40;99.90
19945;DHT22;10134;50.952;6.930;2022-09-09T06:44:34;19.40;99.90
19945;DHT22;10134;50.952;6.930;2022-09-09T06:47:04;19.40;99.90
19945;DHT22;10134;50.952;6.930;2022-09-09T06:49:32;19.40;99.90
19945;DHT22;10134;50.952;6.930;2022-09-09T06:52:01;19.40;99.90
19945;DHT22;10134;50.952;6.930;2022-09-09T06:54:29;19.40;99.90
19945;DHT22;10134;50.952;6.930;2022-09-09T06:56:58;19.40;99.90
19945;DHT22;10134;50.952;6.930;2022-09-09T06:59:47;19.40;99.90
19945;DHT22;10134;50.952;6.930;2022-09-09T07:02:15;19.40;99.90
19945;DHT22;10134;50.952;6.930;2022-09-09T07:04:43;19.40;99.90
19945;DHT22;10134;50.952;6.930;2022-09-09T07:07:11;19.40;99.90
19945;DHT22;10134;50.952;6.930;2022-09-09T07:09:41;19.40;99.90
19945;DHT22;10134;50.952;6.930;2022-09-09T07:12:09;19.50;99.90
19945;DHT22;10134;50.952;6.930;2022-09-09T07:14:42;19.50;99.90
19945;DHT22;10134;50.952;6.930;2022-09-09T07:17:10;19.50;99.90
19945;DHT22;10134;50.952;6.930;2022-09-09T07:19:39;19.50;99.90
19945;DHT22;10134;50.952;6.930;2022-09-09T07:22:07;19.50;99.90
19945;DHT22;10134;50.952;6.930;2022-09-09T07:24:35;19.60;99.90
19945;DHT22;10134;50.952;6.930;2022-09-09T07:27:02;19.60;99.90
19945;DHT22;10134;50.952;6.930;2022-09-09T07:29:30;19.60;99.90
19945;DHT22;10134;50.952;6.930;2022-09-09T07:31:57;19.60;99.90
19945;DHT22;10134;50.952;6.930;2022-09-09T07:34:31;19.60;99.90
19945;DHT22;10134;50.952;6.930;2022-09-09T07:36:58;19.60;99.90
19945;DHT22;10134;50.952;6.930;2022-09-09T07:39:26;19.60;99.90
19945;DHT22;10134;50.952;6.930;2022-09-09T07:41:54;19.70;99.90
19945;DHT22;10134;50.952;6.930;2022-09-09T07:44:24;19.70;99.90
19945;DHT22;10134;50.952;6.930;2022-09-09T07:47:04;19.70;99.90
19945;DHT22;10134;50.952;6.930;2022-09-09T07:49:36;19.80;99.90
19945;DHT22;10134;50.952;6.930;2022-09-09T07:52:05;19.80;99.90
19945;DHT22;10134;50.952;6.930;2022-09-09T07:54:33;19.90;99.90
19945;DHT22;10134;50.952;6.930;2022-09-09T07:57:04;19.90;99.90
19945;DHT22;10134;50.952;6.930;2022-09-09T07:59:33;20.00;99.90
19945;DHT22;10134;50.952;6.930;2022-09-09T08:02:01;20.10;99.90
19945;DHT22;10134;50.952;6.930;2022-09-09T08:04:32;20.20;99.90
19945;DHT22;10134;50.952;6.930;2022-09-09T08:07:00;20.20;99.90
19945;DHT22;10134;50.952;6.930;2022-09-09T08:09:37;20.30;99.90
19945;DHT22;10134;50.952;6.930;2022-09-09T08:12:11;20.30;99.80
19945;DHT22;10134;50.952;6.930;2022-09-09T08:14:40;20.40;99.50
19945;DHT22;10134;50.952;6.930;2022-09-09T08:17:07;20.40;99.30
19945;DHT22;10134;50.952;6.930;2022-09-09T08:19:35;20.40;99.00
19945;DHT22;10134;50.952;6.930;2022-09-09T08:22:07;20.40;98.80
19945;DHT22;10134;50.952;6.930;2022-09-09T08:24:36;20.40;98.60
19945;DHT22;10134;50.952;6.930;2022-09-09T08:27:03;20.40;98.20
19945;DHT22;10134;50.952;6.930;2022-09-09T08:29:31;20.50;98.00
19945;DHT22;10134;50.952;6.930;2022-09-09T08:31:59;20.50;97.70
19945;DHT22;10134;50.952;6.930;2022-09-09T08:34:28;20.50;97.60
19945;DHT22;10134;50.952;6.930;2022-09-09T08:36:59;20.60;97.40
19945;DHT22;10134;50.952;6.930;2022-09-09T08:39:35;20.60;97.40
19945;DHT22;10134;50.952;6.930;2022-09-09T08:42:30;20.60;97.10
19945;DHT22;10134;50.952;6.930;2022-09-09T08:50:38;20.70;94.80
19945;DHT22;10134;50.952;6.930;2022-09-09T08:53:21;20.80;94.60
19945;DHT22;10134;50.952;6.930;2022-09-09T08:55:57;20.90;94.30
19945;DHT22;10134;50.952;6.930;2022-09-09T08:58:34;20.90;94.30
19945;DHT22;10134;50.952;6.930;2022-09-09T09:11:53;21.10;93.20
19945;DHT22;10134;50.952;6.930;2022-09-09T09:14:24;21.10;92.90
19945;DHT22;10134;50.952;6.930;2022-09-09T09:17:04;21.20;93.00
19945;DHT22;10134;50.952;6.930;2022-09-09T09:19:34;21.20;92.80
19945;DHT22;10134;50.952;6.930;2022-09-09T09:33:08;21.40;93.00
19945;DHT22;10134;50.952;6.930;2022-09-09T09:35:41;21.30;92.70
19945;DHT22;10134;50.952;6.930;2022-09-09T09:38:22;21.30;92.50
19945;DHT22;10134;50.952;6.930;2022-09-09T09:41:11;21.30;92.50
19945;DHT22;10134;50.952;6.930;2022-09-09T09:43:40;21.20;92.70
19945;DHT22;10134;50.952;6.930;2022-09-09T09:46:24;21.30;92.90
19945;DHT22;10134;50.952;6.930;2022-09-09T09:49:05;21.30;92.80
19945;DHT22;10134;50.952;6.930;2022-09-09T09:51:34;21.30;92.80
19945;DHT22;10134;50.952;6.930;2022-09-09T09:54:27;21.40;92.90
19945;DHT22;10134;50.952;6.930;2022-09-09T09:57:09;21.40;92.90
19945;DHT22;10134;50.952;6.930;2022-09-09T09:59:37;21.40;92.80
19945;DHT22;10134;50.952;6.930;2022-09-09T10:02:38;21.40;92.70
19945;DHT22;10134;50.952;6.930;2022-09-09T10:05:20;21.40;92.70
19945;DHT22;10134;50.952;6.930;2022-09-09T10:08:13;21.50;92.80
19945;DHT22;10134;50.952;6.930;2022-09-09T10:17:00;21.50;92.20
19945;DHT22;10134;50.952;6.930;2022-09-09T10:19:34;21.40;92.10
19945;DHT22;10134;50.952;6.930;2022-09-09T10:22:36;21.50;91.80
19945;DHT22;10134;50.952;6.930;2022-09-09T10:25:14;21.50;91.80
19945;DHT22;10134;50.952;6.930;2022-09-09T10:33:27;21.50;91.90
19945;DHT22;10134;50.952;6.930;2022-09-09T10:36:19;21.50;91.80
19945;DHT22;10134;50.952;6.930;2022-09-09T10:39:06;21.50;91.80
19945;DHT22;10134;50.952;6.930;2022-09-09T10:41:56;21.50;91.70
19945;DHT22;10134;50.952;6.930;2022-09-09T10:44:43;21.60;91.70
19945;DHT22;10134;50.952;6.930;2022-09-09T10:52:44;21.70;91.70
19945;DHT22;10134;50.952;6.930;2022-09-09T10:55:27;21.70;91.40
19945;DHT22;10134;50.952;6.930;2022-09-09T10:57:58;21.70;91.00
19945;DHT22;10134;50.952;6.930;2022-09-09T11:00:41;21.80;91.10
19945;DHT22;10134;50.952;6.930;2022-09-09T11:03:20;21.80;91.10
19945;DHT22;10134;50.952;6.930;2022-09-09T11:05:52;21.90;91.10
19945;DHT22;10134;50.952;6.930;2022-09-09T11:08:28;22.00;91.10
19945;DHT22;10134;50.952;6.930;2022-09-09T11:11:09;22.00;90.90
19945;DHT22;10134;50.952;6.930;2022-09-09T11:13:55;22.00;90.70
19945;DHT22;10134;50.952;6.930;2022-09-09T11:22:26;22.20;90.20
19945;DHT22;10134;50.952;6.930;2022-09-09T11:25:08;22.30;90.20
19945;DHT22;10134;50.952;6.930;2022-09-09T11:30:45;22.20;89.20
19945;DHT22;10134;50.952;6.930;2022-09-09T11:39:41;22.20;88.20
19945;DHT22;10134;50.952;6.930;2022-09-09T11:42:15;22.20;88.00
19945;DHT22;10134;50.952;6.930;2022-09-09T11:44:43;22.20;88.00
19945;DHT22;10134;50.952;6.930;2022-09-09T11:47:24;22.20;88.00
19945;DHT22;10134;50.952;6.930;2022-09-09T11:52:50;22.30;86.90
19945;DHT22;10134;50.952;6.930;2022-09-09T11:55:25;22.30;86.50
19945;DHT22;10134;50.952;6.930;2022-09-09T11:58:05;22.30;86.60
19945;DHT22;10134;50.952;6.930;2022-09-09T12:00:44;22.20;86.40
19945;DHT22;10134;50.952;6.930;2022-09-09T12:06:30;22.20;85.90
19945;DHT22;10134;50.952;6.930;2022-09-09T12:09:15;22.20;85.90
19945;DHT22;10134;50.952;6.930;2022-09-09T12:11:44;22.10;86.20
19945;DHT22;10134;50.952;6.930;2022-09-09T12:14:23;22.10;86.40
19945;DHT22;10134;50.952;6.930;2022-09-09T12:19:47;22.00;86.20
19945;DHT22;10134;50.952;6.930;2022-09-09T12:22:31;22.00;86.40
19945;DHT22;10134;50.952;6.930;2022-09-09T12:25:08;22.00;86.30
19945;DHT22;10134;50.952;6.930;2022-09-09T12:30:31;22.10;86.10
19945;DHT22;10134;50.952;6.930;2022-09-09T12:33:11;22.10;85.90
19945;DHT22;10134;50.952;6.930;2022-09-09T12:35:42;22.20;86.20
19945;DHT22;10134;50.952;6.930;2022-09-09T12:38:21;22.20;86.20
19945;DHT22;10134;50.952;6.930;2022-09-09T12:40:57;22.20;86.10
19945;DHT22;10134;50.952;6.930;2022-09-09T12:43:26;22.10;85.80
19945;DHT22;10134;50.952;6.930;2022-09-09T12:46:03;22.10;86.00
19945;DHT22;10134;50.952;6.930;2022-09-09T12:48:37;22.10;86.30
19945;DHT22;10134;50.952;6.930;2022-09-09T12:51:16;22.00;86.20
19945;DHT22;10134;50.952;6.930;2022-09-09T12:53:44;22.00;86.40
19945;DHT22;10134;50.952;6.930;2022-09-09T12:56:27;22.00;86.80
19945;DHT22;10134;50.952;6.930;2022-09-09T12:58:57;22.00;86.90
19945;DHT22;10134;50.952;6.930;2022-09-09T13:01:26;22.10;87.30
19945;DHT22;10134;50.952;6.930;2022-09-09T13:03:54;22.20;87.60
19945;DHT22;10134;50.952;6.930;2022-09-09T13:06:28;22.30;88.20
19945;DHT22;10134;50.952;6.930;2022-09-09T13:08:58;22.30;89.40
19945;DHT22;10134;50.952;6.930;2022-09-09T13:11:35;22.30;90.10
19945;DHT22;10134;50.952;6.930;2022-09-09T13:14:03;22.30;90.40
19945;DHT22;10134;50.952;6.930;2022-09-09T13:16:33;22.30;90.70
19945;DHT22;10134;50.952;6.930;2022-09-09T13:19:13;22.30;90.90
19945;DHT22;10134;50.952;6.930;2022-09-09T13:21:40;22.30;91.00
19945;DHT22;10134;50.952;6.930;2022-09-09T13:24:31;22.30;91.10
19945;DHT22;10134;50.952;6.930;2022-09-09T13:27:04;22.20;91.30
19945;DHT22;10134;50.952;6.930;2022-09-09T13:29:32;22.20;91.30
19945;DHT22;10134;50.952;6.930;2022-09-09T13:32:15;22.20;91.20
19945;DHT22;10134;50.952;6.930;2022-09-09T13:34:53;22.20;90.40
19945;DHT22;10134;50.952;6.930;2022-09-09T13:37:33;22.20;90.10
19945;DHT22;10134;50.952;6.930;2022-09-09T13:40:03;22.20;90.10
19945;DHT22;10134;50.952;6.930;2022-09-09T13:42:37;22.30;90.00
19945;DHT22;10134;50.952;6.930;2022-09-09T13:45:14;22.30;90.00
19945;DHT22;10134;50.952;6.930;2022-09-09T13:47:43;22.30;90.00
19945;DHT22;10134;50.952;6.930;2022-09-09T13:50:28;22.40;90.10
19945;DHT22;10134;50.952;6.930;2022-09-09T13:52:58;22.90;90.00
19945;DHT22;10134;50.952;6.930;2022-09-09T13:55:27;23.30;88.70
19945;DHT22;10134;50.952;6.930;2022-09-09T13:57:58;23.70;87.50
19945;DHT22;10134;50.952;6.930;2022-09-09T14:00:32;24.00;86.70
19945;DHT22;10134;50.952;6.930;2022-09-09T14:03:00;24.10;85.60
19945;DHT22;10134;50.952;6.930;2022-09-09T14:05:32;24.10;84.90
19945;DHT22;10134;50.952;6.930;2022-09-09T14:08:03;24.10;85.00
19945;DHT22;10134;50.952;6.930;2022-09-09T14:10:31;23.90;84.80
19945;DHT22;10134;50.952;6.930;2022-09-09T14:12:58;23.90;85.00
19945;DHT22;10134;50.952;6.930;2022-09-09T14:15:26;23.70;85.30
19945;DHT22;10134;50.952;6.930;2022-09-09T14:17:54;23.60;85.70
19945;DHT22;10134;50.952;6.930;2022-09-09T14:20:21;23.40;86.50
19945;DHT22;10134;50.952;6.930;2022-09-09T14:22:48;23.30;89.10
19945;DHT22;10134;50.952;6.930;2022-09-09T14:25:15;23.20;90.30
19945;DHT22;10134;50.952;6.930;2022-09-09T14:27:43;23.00;90.60
19945;DHT22;10134;50.952;6.930;2022-09-09T14:30:10;22.90;91.20
19945;DHT22;10134;50.952;6.930;2022-09-09T14:32:38;22.70;91.90
19945;DHT22;10134;50.952;6.930;2022-09-09T14:35:05;22.50;93.50
19945;DHT22;10134;50.952;6.930;2022-09-09T14:37:33;22.40;94.50
19945;DHT22;10134;50.952;6.930;2022-09-09T14:40:00;22.20;95.40
19945;DHT22;10134;50.952;6.930;2022-09-09T14:42:27;22.10;96.40
19945;DHT22;10134;50.952;6.930;2022-09-09T14:44:57;21.90;97.00
19945;DHT22;10134;50.952;6.930;2022-09-09T14:47:24;21.80;97.30
19945;DHT22;10134;50.952;6.930;2022-09-09T14:49:53;21.70;97.60
19945;DHT22;10134;50.952;6.930;2022-09-09T14:52:20;21.60;97.90
19945;DHT22;10134;50.952;6.930;2022-09-09T14:54:48;21.60;98.40
19945;DHT22;10134;50.952;6.930;2022-09-09T14:57:16;21.60;98.60
19945;DHT22;10134;50.952;6.930;2022-09-09T14:59:43;21.60;98.60
19945;DHT22;10134;50.952;6.930;2022-09-09T15:02:10;21.60;98.70
19945;DHT22;10134;50.952;6.930;2022-09-09T15:04:40;21.70;98.90
19945;DHT22;10134;50.952;6.930;2022-09-09T15:07:07;21.70;99.30
19945;DHT22;10134;50.952;6.930;2022-09-09T15:09:34;21.70;99.30
19945;DHT22;10134;50.952;6.930;2022-09-09T15:12:04;21.80;99.50
19945;DHT22;10134;50.952;6.930;2022-09-09T15:14:31;21.80;99.50
19945;DHT22;10134;50.952;6.930;2022-09-09T15:16:59;21.80;99.50
19945;DHT22;10134;50.952;6.930;2022-09-09T15:19:28;21.80;99.60
19945;DHT22;10134;50.952;6.930;2022-09-09T15:21:55;21.80;99.70
19945;DHT22;10134;50.952;6.930;2022-09-09T15:24:22;21.80;99.90
19945;DHT22;10134;50.952;6.930;2022-09-09T15:26:50;21.70;99.90
19945;DHT22;10134;50.952;6.930;2022-09-09T15:29:17;21.70;99.90
19945;DHT22;10134;50.952;6.930;2022-09-09T15:31:44;21.70;99.90
19945;DHT22;10134;50.952;6.930;2022-09-09T15:34:11;21.60;99.90
19945;DHT22;10134;50.952;6.930;2022-09-09T15:36:43;21.70;99.90
19945;DHT22;10134;50.952;6.930;2022-09-09T15:39:12;21.80;99.90
19945;DHT22;10134;50.952;6.930;2022-09-09T15:41:40;21.80;99.90
19945;DHT22;10134;50.952;6.930;2022-09-09T15:44:08;21.90;99.90
19945;DHT22;10134;50.952;6.930;2022-09-09T15:46:45;21.80;99.90
19945;DHT22;10134;50.952;6.930;2022-09-09T15:51:46;21.80;99.90
19945;DHT22;10134;50.952;6.930;2022-09-09T15:54:16;21.70;99.90
19945;DHT22;10134;50.952;6.930;2022-09-09T15:56:46;21.70;99.90
19945;DHT22;10134;50.952;6.930;2022-09-09T15:59:15;21.70;99.90
19945;DHT22;10134;50.952;6.930;2022-09-09T16:01:43;21.60;99.90
19945;DHT22;10134;50.952;6.930;2022-09-09T16:04:11;21.60;99.90
19945;DHT22;10134;50.952;6.930;2022-09-09T16:06:39;21.50;99.90
19945;DHT22;10134;50.952;6.930;2022-09-09T16:09:07;21.50;99.90
19945;DHT22;10134;50.952;6.930;2022-09-09T16:11:37;21.50;99.90
19945;DHT22;10134;50.952;6.930;2022-09-09T16:14:05;21.50;99.90
19945;DHT22;10134;50.952;6.930;2022-09-09T16:16:33;21.40;99.90
19945;DHT22;10134;50.952;6.930;2022-09-09T16:19:07;21.40;99.90
19945;DHT22;10134;50.952;6.930;2022-09-09T16:21:39;21.30;99.90
19945;DHT22;10134;50.952;6.930;2022-09-09T16:24:08;21.30;99.90
19945;DHT22;10134;50.952;6.930;2022-09-09T16:26:38;21.20;99.90
19945;DHT22;10134;50.952;6.930;2022-09-09T16:29:06;21.20;99.90
19945;DHT22;10134;50.952;6.930;2022-09-09T16:31:33;21.10;99.90
19945;DHT22;10134;50.952;6.930;2022-09-09T16:34:01;21.10;99.90
19945;DHT22;10134;50.952;6.930;2022-09-09T16:36:32;21.10;99.90
19945;DHT22;10134;50.952;6.930;2022-09-09T16:39:04;21.10;99.90
19945;DHT22;10134;50.952;6.930;2022-09-09T16:41:32;21.10;99.90
19945;DHT22;10134;50.952;6.930;2022-09-09T16:44:03;21.00;99.90
19945;DHT22;10134;50.952;6.930;2022-09-09T16:46:32;21.00;99.90
19945;DHT22;10134;50.952;6.930;2022-09-09T16:49:03;21.00;99.90
19945;DHT22;10134;50.952;6.930;2022-09-09T16:51:45;21.00;99.90
19945;DHT22;10134;50.952;6.930;2022-09-09T16:54:15;20.90;99.90
19945;DHT22;10134;50.952;6.930;2022-09-09T16:56:46;20.90;99.90
19945;DHT22;10134;50.952;6.930;2022-09-09T16:59:14;20.90;99.90
19945;DHT22;10134;50.952;6.930;2022-09-09T17:01:43;20.90;99.90
19945;DHT22;10134;50.952;6.930;2022-09-09T17:04:15;20.90;99.90
19945;DHT22;10134;50.952;6.930;2022-09-09T17:06:48;20.90;99.90
19945;DHT22;10134;50.952;6.930;2022-09-09T17:09:17;20.90;99.90
19945;DHT22;10134;50.952;6.930;2022-09-09T17:11:44;20.90;99.90
19945;DHT22;10134;50.952;6.930;2022-09-09T17:14:16;20.80;99.90
19945;DHT22;10134;50.952;6.930;2022-09-09T17:16:44;20.80;99.90
19945;DHT22;10134;50.952;6.930;2022-09-09T17:19:12;20.80;99.90
19945;DHT22;10134;50.952;6.930;2022-09-09T17:21:39;20.70;99.90
19945;DHT22;10134;50.952;6.930;2022-09-09T17:24:27;20.70;99.90
19945;DHT22;10134;50.952;6.930;2022-09-09T17:26:56;20.70;99.90
19945;DHT22;10134;50.952;6.930;2022-09-09T17:29:25;20.60;99.90
19945;DHT22;10134;50.952;6.930;2022-09-09T17:31:52;20.60;99.90
19945;DHT22;10134;50.952;6.930;2022-09-09T17:34:19;20.60;99.90
19945;DHT22;10134;50.952;6.930;2022-09-09T17:36:47;20.60;99.90
19945;DHT22;10134;50.952;6.930;2022-09-09T17:39:16;20.60;99.90
19945;DHT22;10134;50.952;6.930;2022-09-09T17:41:43;20.50;99.90
19945;DHT22;10134;50.952;6.930;2022-09-09T17:44:10;20.50;99.90
19945;DHT22;10134;50.952;6.930;2022-09-09T17:46:40;20.40;99.90
19945;DHT22;10134;50.952;6.930;2022-09-09T17:49:11;20.40;99.90
19945;DHT22;10134;50.952;6.930;2022-09-09T17:51:40;20.40;99.90